createdAt,value
2022-10-05T00:00:42.310Z,56.03
2022-10-05T00:05:45.300Z,56.47
2022-10-05T00:10:46.990Z,56.05
2022-10-05T00:15:48.806Z,57.00
2022-10-05T00:20:50.300Z,56.51
2022-10-05T00:25:51.841Z,56.29
2022-10-05T00:30:57.242Z,56.13
2022-10-05T00:35:58.716Z,55.90
2022-10-05T00:41:10.591Z,56.73
2022-10-05T00:46:39.483Z,56.47
2022-10-05T00:51:41.211Z,56.98
2022-10-05T00:57:00.856Z,57.26
2022-10-05T01:02:23.744Z,56.73
2022-10-05T01:07:51.570Z,57.00
2022-10-05T01:12:52.847Z,57.98
2022-10-05T01:18:08.722Z,57.34
2022-10-05T01:23:40.233Z,57.45
2022-10-05T01:28:45.936Z,57.04
2022-10-05T01:33:57.198Z,56.87
2022-10-05T01:39:10.600Z,57.12
2022-10-05T01:44:14.415Z,57.86
2022-10-05T01:49:18.551Z,57.80
2022-10-05T01:54:27.402Z,57.72
2022-10-05T01:59:36.556Z,57.48
2022-10-05T02:10:08.716Z,57.59
2022-10-05T02:15:18.758Z,57.08
2022-10-05T02:20:23.811Z,57.13
2022-10-05T02:25:28.423Z,57.21
2022-10-05T02:30:30.438Z,56.57
2022-10-05T02:35:31.937Z,57.08
2022-10-05T02:40:58.587Z,56.92
2022-10-05T02:46:22.103Z,56.62
2022-10-05T02:51:28.694Z,57.62
2022-10-05T02:56:38.020Z,57.30
2022-10-05T03:01:50.573Z,57.28
2022-10-05T03:06:55.307Z,57.42
2022-10-05T03:12:11.070Z,57.71
2022-10-05T03:17:23.907Z,57.33
2022-10-05T03:22:51.055Z,57.52
2022-10-05T03:28:07.543Z,57.41
2022-10-05T03:33:42.241Z,57.09
2022-10-05T03:39:02.628Z,56.97
2022-10-05T03:44:25.146Z,57.84
2022-10-05T03:49:49.600Z,57.22
2022-10-05T03:55:06.954Z,56.60
2022-10-05T04:00:17.234Z,57.42
2022-10-05T04:05:41.346Z,56.33
2022-10-05T04:10:48.270Z,56.76
2022-10-05T04:16:00.240Z,56.40
2022-10-05T04:21:24.221Z,56.46
2022-10-05T04:26:34.769Z,56.30
2022-10-05T04:32:01.471Z,56.60
2022-10-05T04:37:04.517Z,55.80
2022-10-05T04:42:55.074Z,55.82
2022-10-05T04:48:13.294Z,56.72
2022-10-05T04:53:42.630Z,56.65
2022-10-05T04:59:02.618Z,57.68
2022-10-05T05:04:32.252Z,57.79
2022-10-05T05:09:45.992Z,57.29
2022-10-05T05:14:59.314Z,58.17
2022-10-05T05:20:21.076Z,57.67
2022-10-05T05:25:53.060Z,57.83
2022-10-05T05:31:30.038Z,57.42
2022-10-05T05:36:37.249Z,57.21
2022-10-05T05:41:40.151Z,57.25
2022-10-05T05:47:02.800Z,56.82
2022-10-05T05:52:10.802Z,57.03
2022-10-05T05:57:17.736Z,57.15
2022-10-05T06:02:21.366Z,58.51
2022-10-05T06:07:30.172Z,58.41
2022-10-05T06:12:34.780Z,57.93
2022-10-05T06:17:42.347Z,57.81
2022-10-05T06:22:44.907Z,57.91
2022-10-05T06:28:14.039Z,57.44
2022-10-05T06:33:45.376Z,57.76
2022-10-05T06:39:05.320Z,57.09
2022-10-05T06:44:30.422Z,56.58
2022-10-05T06:49:54.059Z,56.79
2022-10-05T06:55:05.122Z,57.23
2022-10-05T07:00:21.435Z,56.90
2022-10-05T07:05:47.465Z,56.31
2022-10-05T07:11:03.429Z,56.38
2022-10-05T07:16:30.656Z,56.16
2022-10-05T07:21:39.384Z,56.08
2022-10-05T07:26:50.931Z,55.45
2022-10-05T07:32:02.926Z,55.98
2022-10-05T07:37:42.556Z,55.06
2022-10-05T07:43:03.233Z,56.25
2022-10-05T07:48:17.328Z,56.15
2022-10-05T07:53:23.232Z,55.00
2022-10-05T07:58:31.419Z,54.50
2022-10-05T08:03:49.665Z,55.45
2022-10-05T08:08:54.567Z,54.57
2022-10-05T08:14:00.733Z,54.37
2022-10-05T08:19:19.732Z,54.26
2022-10-05T08:24:31.847Z,54.38
2022-10-05T08:29:35.339Z,54.82
2022-10-05T08:34:40.263Z,54.81
2022-10-05T08:39:50.482Z,54.86
2022-10-05T08:45:10.136Z,54.64
2022-10-05T08:50:35.729Z,55.63
2022-10-05T08:55:43.599Z,55.53
2022-10-05T09:00:50.945Z,54.95
2022-10-05T09:06:09.301Z,55.74
2022-10-05T09:11:17.452Z,56.01
2022-10-05T09:16:32.643Z,55.29
2022-10-05T09:21:43.570Z,55.35
2022-10-05T09:26:58.371Z,54.61
2022-10-05T09:32:07.008Z,54.10
2022-10-05T09:37:11.504Z,53.49
2022-10-05T09:42:25.602Z,54.54
2022-10-05T09:47:59.773Z,53.57
2022-10-05T09:53:19.843Z,53.03
2022-10-05T09:58:48.247Z,52.34
2022-10-05T10:04:07.960Z,51.42
2022-10-05T10:09:33.096Z,52.00
2022-10-05T10:15:02.995Z,51.53
2022-10-05T10:20:22.918Z,50.60
2022-10-05T10:25:42.735Z,51.69
2022-10-05T10:31:04.021Z,51.31
2022-10-05T10:36:18.510Z,50.66
2022-10-05T10:41:23.424Z,50.93
2022-10-05T10:46:44.676Z,50.69
2022-10-05T10:52:12.164Z,49.66
2022-10-05T10:57:15.363Z,50.20
2022-10-05T11:02:38.925Z,49.07
2022-10-05T11:07:58.373Z,49.33
2022-10-05T11:13:21.445Z,50.11
2022-10-05T11:18:46.802Z,50.29
2022-10-05T11:24:06.072Z,50.60
2022-10-05T11:29:25.877Z,50.99
2022-10-05T11:34:34.219Z,50.53
2022-10-05T11:39:38.039Z,50.40
2022-10-05T11:44:58.227Z,50.23
2022-10-05T11:50:14.850Z,50.56
2022-10-05T11:55:28.211Z,50.55
2022-10-05T12:00:36.247Z,50.79
2022-10-05T12:05:59.239Z,51.90
2022-10-05T12:11:03.399Z,51.22
2022-10-05T12:16:18.393Z,51.34
2022-10-05T12:21:41.298Z,51.11
2022-10-05T12:26:59.239Z,51.32
2022-10-05T12:32:03.166Z,51.58
2022-10-05T12:37:23.883Z,52.49
2022-10-05T12:42:50.272Z,52.29
2022-10-05T12:48:13.280Z,52.03
2022-10-05T12:53:52.318Z,52.32
2022-10-05T12:59:15.357Z,53.45
2022-10-05T13:04:28.690Z,53.03
2022-10-05T13:09:44.507Z,52.10
2022-10-05T13:15:16.771Z,51.88
2022-10-05T13:20:35.235Z,51.97
2022-10-05T13:25:39.068Z,51.74
2022-10-05T13:30:41.436Z,52.45
2022-10-05T13:35:52.996Z,52.64
2022-10-05T13:41:08.408Z,52.38
2022-10-05T13:46:33.219Z,52.85
2022-10-05T13:51:45.838Z,52.25
2022-10-05T13:57:33.666Z,52.26
2022-10-05T14:02:39.373Z,52.56
2022-10-05T14:07:52.720Z,51.13
2022-10-05T14:12:54.337Z,52.81
2022-10-05T14:17:55.859Z,52.14
2022-10-05T14:23:01.796Z,51.57
2022-10-05T14:28:24.611Z,50.71
2022-10-05T14:33:31.120Z,51.40
2022-10-05T14:38:36.184Z,52.50
2022-10-05T14:43:37.681Z,51.56
2022-10-05T14:48:42.595Z,51.33
2022-10-05T14:53:46.056Z,51.24
2022-10-05T14:59:00.738Z,51.29
2022-10-05T15:04:21.147Z,51.86
2022-10-05T15:10:03.039Z,51.42
2022-10-05T15:15:26.976Z,51.03
2022-10-05T15:20:34.009Z,51.18
2022-10-05T15:25:40.381Z,52.10
2022-10-05T15:30:47.801Z,51.39
2022-10-05T15:36:00.457Z,52.53
2022-10-05T15:41:15.190Z,52.44
2022-10-05T15:46:34.102Z,53.54
2022-10-05T15:51:50.736Z,53.47
2022-10-05T15:57:01.824Z,53.83
2022-10-05T16:02:07.129Z,53.39
2022-10-05T16:07:38.988Z,51.96
2022-10-05T16:12:43.120Z,51.73
2022-10-05T16:18:09.167Z,52.64
2022-10-05T16:23:37.478Z,53.20
2022-10-05T16:29:02.943Z,53.00
2022-10-05T16:34:26.546Z,52.52
2022-10-05T16:39:59.109Z,51.83
2022-10-05T16:45:21.989Z,52.60
2022-10-05T16:50:30.210Z,52.17
2022-10-05T16:55:39.975Z,51.77
2022-10-05T17:00:44.045Z,51.88
2022-10-05T17:06:20.468Z,52.42
2022-10-05T17:11:40.116Z,53.23
2022-10-05T17:17:15.757Z,52.56
2022-10-05T17:22:33.020Z,53.23
2022-10-05T17:28:16.541Z,52.34
2022-10-05T17:33:25.147Z,52.59
2022-10-05T17:38:35.463Z,52.91
2022-10-05T17:43:37.028Z,53.58
2022-10-05T17:49:01.223Z,53.10
2022-10-05T17:54:50.423Z,52.71
2022-10-05T17:59:57.743Z,51.82
2022-10-05T18:05:04.914Z,52.15
2022-10-05T18:10:09.374Z,51.48
2022-10-05T18:15:10.685Z,52.43
2022-10-05T18:20:13.545Z,52.20
2022-10-05T18:25:25.906Z,52.83
2022-10-05T18:30:27.417Z,52.98
2022-10-05T18:35:40.023Z,53.08
2022-10-05T18:41:01.681Z,53.50
2022-10-05T18:46:30.596Z,53.40
2022-10-05T18:51:52.705Z,52.31
2022-10-05T18:56:54.289Z,52.62
2022-10-05T19:02:26.082Z,55.16
2022-10-05T19:07:43.734Z,54.80
2022-10-05T19:13:04.925Z,55.58
2022-10-05T19:18:28.990Z,55.75
2022-10-05T19:23:30.799Z,56.05
2022-10-05T19:28:36.940Z,57.04
2022-10-05T19:34:07.335Z,57.63
2022-10-05T19:39:36.690Z,58.13
2022-10-05T19:45:05.778Z,57.10
2022-10-05T19:50:33.782Z,57.03
2022-10-05T19:55:43.640Z,56.72
2022-10-05T20:01:11.243Z,58.36
2022-10-05T20:06:12.718Z,58.02
2022-10-05T20:11:27.168Z,59.75
2022-10-05T20:16:48.381Z,62.38
2022-10-05T20:21:50.536Z,67.51
2022-10-05T20:27:15.158Z,64.52
2022-10-05T20:32:20.298Z,62.94
2022-10-05T20:37:21.894Z,62.56
2022-10-05T20:42:23.742Z,62.82
2022-10-05T20:47:25.589Z,60.93
2022-10-05T20:52:27.076Z,62.58
2022-10-05T20:57:28.549Z,62.21
2022-10-05T21:02:30.015Z,63.63
2022-10-05T21:07:34.045Z,62.71
2022-10-05T21:12:35.916Z,63.95
2022-10-05T21:17:37.978Z,63.88
2022-10-05T21:22:39.445Z,65.35
2022-10-05T21:27:41.288Z,63.42
2022-10-05T21:32:44.647Z,62.99
2022-10-05T21:37:46.474Z,64.43
2022-10-05T21:42:47.942Z,62.77
2022-10-05T21:47:49.602Z,62.21
2022-10-05T21:52:51.853Z,62.57
2022-10-05T21:57:53.182Z,63.22
2022-10-05T22:02:54.728Z,61.40
2022-10-05T22:07:56.196Z,58.58
2022-10-05T22:13:03.880Z,57.47
2022-10-05T22:18:05.808Z,57.69
2022-10-05T22:23:07.296Z,58.54
2022-10-05T22:28:10.600Z,56.74
2022-10-05T22:33:13.225Z,58.13
2022-10-05T22:38:14.748Z,60.52
2022-10-05T22:43:16.238Z,60.69
2022-10-05T22:48:18.525Z,60.04
2022-10-05T22:53:19.866Z,56.95
2022-10-05T22:58:21.355Z,55.30
2022-10-05T23:03:22.870Z,54.21
2022-10-05T23:08:24.554Z,53.82
2022-10-05T23:13:26.097Z,56.75
2022-10-05T23:18:27.940Z,55.10
2022-10-05T23:23:29.630Z,53.87
2022-10-05T23:28:31.606Z,53.10
2022-10-05T23:33:33.961Z,55.71
2022-10-05T23:38:35.694Z,56.56
2022-10-05T23:43:37.194Z,55.70
2022-10-05T23:48:38.834Z,53.59
2022-10-05T23:53:40.299Z,54.84
2022-10-05T23:58:41.859Z,53.51
